createdAt,value
2023-04-02T00:01:41.023Z,9.33
2023-04-02T00:05:55.909Z,9.34
2023-04-02T00:09:59.207Z,9.34
2023-04-02T00:14:03.941Z,9.34
2023-04-02T00:18:08.478Z,9.36
2023-04-02T00:22:18.198Z,9.41
2023-04-02T00:26:30.487Z,9.38
2023-04-02T00:30:33.545Z,9.39
2023-04-02T00:34:39.453Z,9.40
2023-04-02T00:38:46.785Z,9.40
2023-04-02T00:42:52.120Z,9.41
2023-04-02T00:46:55.449Z,9.41
2023-04-02T00:51:00.978Z,9.37
2023-04-02T00:55:10.477Z,9.37
2023-04-02T00:59:21.109Z,9.35
2023-04-02T01:03:44.379Z,9.31
2023-04-02T01:08:02.987Z,9.25
2023-04-02T01:12:26.396Z,9.20
2023-04-02T01:16:46.706Z,9.19
2023-04-02T01:21:21.900Z,9.14
2023-04-02T01:25:31.750Z,9.13
2023-04-02T01:29:39.210Z,9.14
2023-04-02T01:33:42.985Z,9.12
2023-04-02T01:37:51.646Z,9.10
2023-04-02T01:42:08.006Z,9.08
2023-04-02T01:46:28.252Z,9.07
2023-04-02T01:50:37.567Z,9.08
2023-04-02T01:54:43.207Z,9.07
2023-04-02T01:58:49.489Z,9.04
2023-04-02T02:02:54.212Z,9.03
2023-04-02T02:07:00.799Z,9.00
2023-04-02T02:11:05.716Z,8.99
2023-04-02T02:15:15.556Z,8.95
2023-04-02T02:19:28.280Z,8.92
2023-04-02T02:23:32.498Z,8.89
2023-04-02T02:27:51.468Z,8.85
2023-04-02T02:31:57.734Z,8.84
2023-04-02T02:36:06.457Z,8.85
2023-04-02T02:40:21.182Z,8.84
2023-04-02T02:44:26.764Z,8.83
2023-04-02T02:48:37.296Z,8.83
2023-04-02T02:52:51.975Z,8.83
2023-04-02T02:57:00.172Z,8.81
2023-04-02T03:01:04.654Z,8.84
2023-04-02T03:05:11.006Z,8.87
2023-04-02T03:09:23.682Z,8.90
2023-04-02T03:13:33.166Z,8.86
2023-04-02T03:17:40.372Z,8.87
2023-04-02T03:21:49.444Z,8.83
2023-04-02T03:26:03.044Z,8.84
2023-04-02T03:30:22.215Z,8.80
2023-04-02T03:34:29.886Z,8.79
2023-04-02T03:38:36.892Z,8.74
2023-04-02T03:42:46.565Z,8.72
2023-04-02T03:46:57.683Z,8.69
2023-04-02T03:51:08.128Z,8.66
2023-04-02T03:55:15.976Z,8.67
2023-04-02T03:59:31.958Z,8.69
2023-04-02T04:03:41.935Z,8.70
2023-04-02T04:07:46.329Z,8.72
2023-04-02T04:11:52.821Z,8.71
2023-04-02T04:16:02.219Z,8.71
2023-04-02T04:20:17.101Z,8.70
2023-04-02T04:24:23.728Z,8.72
2023-04-02T04:28:41.659Z,8.70
2023-04-02T04:32:51.114Z,8.69
2023-04-02T04:37:01.897Z,8.70
2023-04-02T04:41:14.348Z,8.73
2023-04-02T04:45:35.994Z,8.74
2023-04-02T04:49:45.480Z,8.76
2023-04-02T04:53:53.951Z,8.76
2023-04-02T04:58:04.550Z,8.78
2023-04-02T05:02:13.149Z,8.80
2023-04-02T05:06:33.880Z,8.78
2023-04-02T05:10:43.688Z,8.81
2023-04-02T05:14:52.496Z,8.84
2023-04-02T05:19:01.026Z,8.85
2023-04-02T05:23:16.259Z,8.88
2023-04-02T05:27:26.500Z,8.92
2023-04-02T05:31:37.785Z,8.95
2023-04-02T05:35:45.809Z,8.97
2023-04-02T05:39:55.981Z,9.01
2023-04-02T05:44:08.875Z,9.03
2023-04-02T05:48:18.962Z,9.05
2023-04-02T05:52:27.036Z,9.01
2023-04-02T05:56:38.504Z,9.00
2023-04-02T06:01:03.820Z,8.98
2023-04-02T06:05:13.715Z,8.96
2023-04-02T06:09:22.167Z,8.96
2023-04-02T06:13:29.120Z,8.92
2023-04-02T06:17:44.419Z,8.88
2023-04-02T06:21:49.861Z,8.87
2023-04-02T06:26:02.935Z,8.87
2023-04-02T06:30:18.649Z,8.90
2023-04-02T06:34:26.928Z,8.91
2023-04-02T06:38:37.165Z,8.91
2023-04-02T06:42:43.481Z,8.94
2023-04-02T06:47:17.489Z,8.97
2023-04-02T06:51:27.405Z,8.99
2023-04-02T06:55:37.951Z,9.05
2023-04-02T06:59:41.621Z,9.09
2023-04-02T07:03:53.544Z,9.18
2023-04-02T07:08:18.616Z,9.25
2023-04-02T07:12:28.857Z,9.29
2023-04-02T07:16:37.745Z,9.29
2023-04-02T07:20:42.799Z,9.32
2023-04-02T07:25:00.580Z,9.38
2023-04-02T07:29:03.983Z,9.38
2023-04-02T07:33:07.024Z,9.42
2023-04-02T07:37:15.353Z,9.46
2023-04-02T07:41:19.676Z,9.52
2023-04-02T07:45:22.790Z,9.58
2023-04-02T07:49:25.787Z,9.65
2023-04-02T07:53:32.160Z,9.78
2023-04-02T07:57:35.209Z,9.86
2023-04-02T08:01:38.407Z,9.95
2023-04-02T08:05:41.495Z,10.03
2023-04-02T08:09:46.047Z,10.14
2023-04-02T08:13:49.141Z,10.18
2023-04-02T08:17:53.522Z,10.23
2023-04-02T08:21:56.660Z,10.32
2023-04-02T08:26:01.066Z,10.36
2023-04-02T08:30:04.918Z,10.40
2023-04-02T08:34:07.989Z,10.52
2023-04-02T08:38:15.519Z,10.61
2023-04-02T08:42:29.337Z,10.75
2023-04-02T08:46:38.895Z,10.80
2023-04-02T08:50:44.264Z,10.83
2023-04-02T08:54:47.746Z,10.81
2023-04-02T08:58:56.201Z,10.86
2023-04-02T09:03:03.848Z,10.89
2023-04-02T09:07:07.108Z,10.88
2023-04-02T09:11:17.314Z,10.94
2023-04-02T09:15:30.723Z,11.00
2023-04-02T09:19:38.130Z,11.06
2023-04-02T09:23:41.272Z,11.12
2023-04-02T09:27:49.037Z,11.09
2023-04-02T09:32:01.002Z,11.13
2023-04-02T09:36:04.207Z,11.17
2023-04-02T09:40:18.446Z,11.28
2023-04-02T09:44:24.421Z,11.38
2023-04-02T09:48:31.450Z,11.44
2023-04-02T09:52:34.846Z,11.51
2023-04-02T09:56:39.259Z,11.71
2023-04-02T10:00:51.295Z,11.87
2023-04-02T10:04:56.096Z,11.89
2023-04-02T10:08:59.330Z,11.97
2023-04-02T10:13:05.357Z,12.05
2023-04-02T10:17:14.018Z,11.97
2023-04-02T10:21:20.668Z,11.93
2023-04-02T10:25:27.687Z,11.83
2023-04-02T10:30:02.518Z,11.82
2023-04-02T10:34:13.757Z,11.76
2023-04-02T10:38:42.893Z,11.74
2023-04-02T10:42:56.820Z,11.71
2023-04-02T10:47:09.243Z,11.76
2023-04-02T10:51:21.331Z,11.83
2023-04-02T10:55:30.231Z,11.88
2023-04-02T10:59:38.325Z,11.89
2023-04-02T11:03:47.809Z,11.87
2023-04-02T11:07:56.752Z,11.89
2023-04-02T11:12:03.181Z,11.88
2023-04-02T11:16:06.815Z,11.89
2023-04-02T11:20:47.245Z,11.98
2023-04-02T11:24:51.883Z,11.94
2023-04-02T11:29:08.065Z,11.87
2023-04-02T11:33:44.297Z,11.55
2023-04-02T11:37:48.680Z,11.02
2023-04-02T11:42:24.945Z,10.43
2023-04-02T11:46:47.660Z,10.04
2023-04-02T11:50:50.868Z,9.88
2023-04-02T11:55:00.914Z,9.72
2023-04-02T11:59:13.023Z,9.62
2023-04-02T12:03:34.608Z,9.53
2023-04-02T12:07:55.868Z,9.48
2023-04-02T12:12:01.242Z,9.34
2023-04-02T12:16:04.916Z,9.20
2023-04-02T12:20:24.180Z,9.08
2023-04-02T12:24:31.374Z,9.01
2023-04-02T12:28:38.030Z,8.98
2023-04-02T12:32:41.549Z,8.85
2023-04-02T12:36:55.133Z,8.67
2023-04-02T12:40:59.716Z,8.60
2023-04-02T12:45:05.016Z,8.45
2023-04-02T12:49:21.849Z,8.38
2023-04-02T12:53:31.594Z,8.29
2023-04-02T12:57:40.750Z,8.25
2023-04-02T13:01:57.159Z,8.20
2023-04-02T13:06:00.525Z,8.13
2023-04-02T13:10:08.510Z,8.08
2023-04-02T13:14:19.992Z,8.05
2023-04-02T13:18:24.286Z,8.02
2023-04-02T13:22:32.209Z,8.05
2023-04-02T13:26:36.723Z,8.05
2023-04-02T13:30:39.787Z,8.07
2023-04-02T13:34:42.810Z,8.12
2023-04-02T13:38:46.036Z,8.16
2023-04-02T13:42:50.902Z,8.21
2023-04-02T13:46:55.149Z,8.26
2023-04-02T13:50:58.238Z,8.31
2023-04-02T13:55:05.849Z,8.35
2023-04-02T13:59:11.419Z,8.41
2023-04-02T14:03:18.611Z,8.59
2023-04-02T14:07:45.140Z,8.65
2023-04-02T14:11:58.047Z,8.73
2023-04-02T14:16:19.302Z,8.77
2023-04-02T14:20:35.100Z,8.81
2023-04-02T14:24:49.854Z,8.74
2023-04-02T14:29:01.676Z,8.74
2023-04-02T14:33:17.392Z,8.67
2023-04-02T14:37:26.749Z,8.65
2023-04-02T14:41:37.766Z,8.57
2023-04-02T14:45:53.753Z,8.50
2023-04-02T14:50:04.395Z,8.46
2023-04-02T14:54:13.114Z,8.45
2023-04-02T14:58:21.163Z,8.41
2023-04-02T15:02:31.460Z,8.41
2023-04-02T15:06:41.613Z,8.38
2023-04-02T15:10:58.653Z,8.38
2023-04-02T15:15:09.817Z,8.40
2023-04-02T15:19:15.746Z,8.41
2023-04-02T15:23:32.488Z,8.40
2023-04-02T15:27:51.256Z,8.40
2023-04-02T15:32:00.806Z,8.50
2023-04-02T15:36:28.456Z,8.44
2023-04-02T15:40:45.049Z,8.36
2023-04-02T15:45:14.132Z,8.29
2023-04-02T15:49:31.989Z,8.23
2023-04-02T15:53:48.440Z,8.21
2023-04-02T15:58:25.693Z,8.07
2023-04-02T16:02:59.280Z,7.97
2023-04-02T16:07:20.377Z,7.91
2023-04-02T16:11:23.899Z,7.85
2023-04-02T16:15:36.216Z,7.80
2023-04-02T16:19:43.511Z,7.77
2023-04-02T16:23:46.682Z,7.71
2023-04-02T16:27:54.676Z,7.67
2023-04-02T16:32:06.509Z,7.62
2023-04-02T16:36:25.234Z,7.58
2023-04-02T16:40:38.074Z,7.60
2023-04-02T16:44:54.444Z,7.55
2023-04-02T16:49:03.418Z,7.53
2023-04-02T16:53:23.249Z,7.49
2023-04-02T16:57:38.030Z,7.50
2023-04-02T17:01:51.781Z,7.37
2023-04-02T17:06:02.808Z,7.28
2023-04-02T17:10:25.684Z,7.16
2023-04-02T17:14:32.711Z,7.02
2023-04-02T17:18:36.599Z,6.89
2023-04-02T17:22:41.379Z,6.78
2023-04-02T17:26:47.721Z,6.68
2023-04-02T17:30:54.369Z,6.60
2023-04-02T17:34:57.993Z,6.50
2023-04-02T17:39:12.797Z,6.44
2023-04-02T17:43:35.638Z,6.33
2023-04-02T17:47:48.391Z,6.27
2023-04-02T17:51:58.812Z,6.19
2023-04-02T17:56:17.454Z,6.14
2023-04-02T18:00:46.833Z,6.09
2023-04-02T18:04:58.542Z,6.02
2023-04-02T18:09:15.693Z,5.94
2023-04-02T18:13:31.962Z,5.88
2023-04-02T18:17:47.389Z,5.78
2023-04-02T18:21:59.557Z,5.76
2023-04-02T18:26:12.161Z,5.70
2023-04-02T18:30:23.035Z,5.67
2023-04-02T18:34:41.685Z,5.63
2023-04-02T18:38:48.863Z,5.55
2023-04-02T18:43:01.479Z,5.53
2023-04-02T18:47:13.688Z,5.46
2023-04-02T18:51:22.060Z,5.42
2023-04-02T18:55:29.105Z,5.38
2023-04-02T18:59:39.308Z,5.35
2023-04-02T19:03:50.204Z,5.28
2023-04-02T19:07:59.193Z,5.26
2023-04-02T19:12:03.855Z,5.15
2023-04-02T19:16:33.154Z,5.15
2023-04-02T19:20:44.619Z,5.10
2023-04-02T19:25:16.679Z,5.06
2023-04-02T19:29:32.585Z,5.06
2023-04-02T19:33:43.781Z,5.06
2023-04-02T19:37:59.042Z,5.00
2023-04-02T19:42:14.608Z,5.03
2023-04-02T19:46:18.509Z,4.99
2023-04-02T19:50:22.248Z,4.96
2023-04-02T19:54:26.655Z,4.92
2023-04-02T19:58:32.166Z,4.91
2023-04-02T20:02:35.505Z,4.90
2023-04-02T20:06:38.680Z,4.88
2023-04-02T20:10:43.655Z,4.84
2023-04-02T20:14:46.733Z,4.85
2023-04-02T20:18:50.420Z,4.87
2023-04-02T20:22:53.534Z,4.86
2023-04-02T20:26:57.929Z,4.85
2023-04-02T20:31:08.578Z,4.82
2023-04-02T20:35:11.756Z,4.77
2023-04-02T20:39:19.335Z,4.76
2023-04-02T20:43:24.139Z,4.76
2023-04-02T20:47:27.337Z,4.78
2023-04-02T20:51:30.602Z,4.81
2023-04-02T20:55:33.629Z,4.83
2023-04-02T20:59:38.172Z,4.85
2023-04-02T21:03:41.401Z,4.88
2023-04-02T21:07:44.406Z,4.87
2023-04-02T21:11:47.494Z,4.86
2023-04-02T21:15:52.033Z,4.90
2023-04-02T21:19:55.062Z,4.84
2023-04-02T21:24:00.362Z,4.86
2023-04-02T21:28:03.879Z,4.91
2023-04-02T21:32:20.975Z,4.92
2023-04-02T21:36:26.945Z,4.92
2023-04-02T21:40:30.071Z,4.86
2023-04-02T21:44:33.108Z,4.88
2023-04-02T21:48:37.646Z,4.89
2023-04-02T21:52:40.739Z,4.89
2023-04-02T21:56:46.078Z,4.87
2023-04-02T22:00:49.375Z,4.86
2023-04-02T22:04:54.222Z,4.89
2023-04-02T22:08:59.410Z,4.83
2023-04-02T22:13:02.458Z,4.81
2023-04-02T22:17:05.583Z,4.82
2023-04-02T22:21:11.486Z,4.79
2023-04-02T22:25:14.508Z,4.81
2023-04-02T22:29:17.640Z,4.78
2023-04-02T22:33:20.732Z,4.76
2023-04-02T22:37:25.157Z,4.79
2023-04-02T22:41:29.790Z,4.81
2023-04-02T22:45:32.917Z,4.81
2023-04-02T22:49:35.940Z,4.80
2023-04-02T22:53:40.826Z,4.82
2023-04-02T22:57:44.334Z,4.79
2023-04-02T23:01:47.507Z,4.78
2023-04-02T23:05:59.963Z,4.77
2023-04-02T23:10:05.439Z,4.81
2023-04-02T23:14:08.971Z,4.78
2023-04-02T23:18:11.986Z,4.78
2023-04-02T23:22:15.044Z,4.75
2023-04-02T23:26:22.342Z,4.78
2023-04-02T23:30:25.506Z,4.76
2023-04-02T23:34:28.558Z,4.73
2023-04-02T23:38:31.575Z,4.74
2023-04-02T23:42:36.125Z,4.70
2023-04-02T23:46:39.576Z,4.70
2023-04-02T23:50:42.942Z,4.69
2023-04-02T23:54:45.943Z,4.69
2023-04-02T23:58:51.583Z,4.67
